Terminal Aerodrome Forecast
Issued by NWS

Home | Current Version | Previous Version | Text Only | Print | Product List | Glossary On
Versions: 1 2 3 4 5 6 7 8 9 10 11 12 13 14 15 16 17
073
FTAK31 PAJN 020306 AAA
TAFAKT
TAF AMD
PAKT 020306Z 0203/0224 16012KT 3SM RA BR SCT008 OVC012
      WS020/16040KT
      TEMPO 0203/0207 6SM -RA BR FEW008 SCT015 OVC025
     FM020800 14015G25KT 3SM -RA BR SCT006 OVC010 WS020/17035KT
     FM021200 14011KT 6SM -RA SCT015 OVC040
     FM021700 13009KT P6SM SCT020 BKN035
      AMD LTD TO CLD VIS AND WIND 0206/0215=

USA.gov is the U.S. government's official web portal to all federal, state and local government web resources and services.